Home   Weather   Carrizo Springs   Past weeks
Flag for USA

Past Weather in Carrizo Springs, Texas, USA — Yesterday and Last 2 Weeks

Currently: 49 °F. Clear. (Weather station: Garner Field Airport, USA). See more current weather

Past Weather in Carrizo Springs — Graph

°F

Carrizo Springs Temperature Yesterday

Maximum temperature yesterday: 61 °F (at 12:15 am)
Minimum temperature yesterday: 50 °F (at 11:55 pm)
Average temperature yesterday: 56 °F

High & Low Weather Summary for the Past Weeks

 TemperatureHumidityPressure
High84 °F (Nov 24, 4:15 pm)100% (Nov 19, 3:15 am)30.49 "Hg (Nov 19, 3:15 am)
Low43 °F (Nov 29, 7:15 am)12% (Nov 15, 2:55 pm)29.78 "Hg (Nov 24, 3:55 pm)
Average64 °F64%30.17 "Hg
* Reported Nov 14 7:15 pm — Nov 29 7:35 pm, Carrizo Springs. Weather by CustomWeather, © 2020

Note: Actual official high and low records may vary slightly from our data, if they occured in-between our weather recording intervals... More about our weather records

Carrizo Springs Weather History for the Previous 24 Hours

Scroll right to see more
 ConditionsComfort  
Time TempWeatherWind HumidityBarometerVisibility
7:35 pm
Sun, Nov 29
49 °FClear.10 mph68%30.31 "Hg10 mi
7:15 pm49 °FClear.12 mph68%30.29 "Hg10 mi
6:55 pm50 °FClear.9 mph68%30.28 "Hg10 mi
6:35 pm50 °FClear.7 mph69%30.27 "Hg10 mi
6:15 pm50 °FClear.13 mph68%30.27 "Hg10 mi
5:55 pm51 °FClear.15 mph68%30.26 "Hg10 mi
5:35 pm52 °FSunny.15 mph67%30.25 "Hg10 mi
5:15 pm52 °FSunny.16 mph68%30.24 "Hg10 mi
4:55 pm54 °FSunny.16 mph65%30.23 "Hg10 mi
4:35 pm54 °FSunny.18 mph64%30.22 "Hg10 mi
4:15 pm55 °FSunny.15 mph63%30.20 "Hg10 mi
3:55 pm55 °FSunny.21 mph61%30.18 "Hg10 mi
3:35 pm57 °FSunny.21 mph58%30.17 "Hg10 mi
3:15 pm62 °FSunny.20 mph52%30.15 "Hg10 mi
2:55 pm67 °FSunny.12 mph39%30.14 "Hg10 mi
2:35 pm67 °FSunny.17 mph35%30.14 "Hg10 mi
2:15 pm67 °FSunny.15 mph37%30.14 "Hg10 mi
1:55 pm67 °FSunny.15 mph38%30.13 "Hg10 mi
1:35 pm66 °FSunny.16 mph38%30.13 "Hg10 mi
1:15 pm66 °FSunny.14 mph43%30.14 "Hg10 mi
12:55 pm66 °FSunny.13 mph45%30.14 "Hg10 mi
12:35 pm65 °FSunny.14 mph44%30.15 "Hg10 mi
12:15 pm65 °FSunny.9 mph47%30.16 "Hg10 mi
11:55 am63 °FSunny.8 mph52%30.16 "Hg10 mi
11:35 am63 °FSunny.12 mph53%30.17 "Hg10 mi
11:15 am62 °FSunny.9 mph54%30.17 "Hg10 mi
10:55 am61 °FSunny.10 mph58%30.17 "Hg10 mi
10:35 am60 °FSunny.13 mph57%30.17 "Hg10 mi
10:15 am56 °FSunny.7 mph72%30.17 "Hg10 mi
9:55 am54 °FSunny.3 mph75%30.16 "Hg10 mi
9:35 am53 °FSunny.6 mph74%30.15 "Hg10 mi
9:15 am52 °FSunny.6 mph74%30.15 "Hg10 mi
8:55 am49 °FSunny.5 mph83%30.14 "Hg10 mi
8:35 am47 °FSunny.No wind88%30.14 "Hg10 mi
8:15 am45 °FSunny.3 mph95%30.14 "Hg10 mi
7:55 am43 °FSunny.No wind100%30.13 "Hg10 mi
7:35 am43 °FSunny.3 mph99%30.12 "Hg10 mi
7:15 am43 °FSunny.No wind98%30.11 "Hg10 mi
6:55 am44 °FClear.5 mph95%30.11 "Hg10 mi
6:35 am44 °FClear.3 mph97%30.10 "Hg10 mi
6:15 am45 °FClear.5 mph93%30.09 "Hg10 mi
5:55 am44 °FClear.6 mph97%30.09 "Hg10 mi
5:35 am45 °FClear.7 mph95%30.08 "Hg10 mi
5:15 am45 °FClear.3 mph97%30.08 "Hg10 mi
4:55 am44 °FClear.No wind98%30.08 "Hg10 mi
4:35 am45 °FClear.6 mph97%30.08 "Hg10 mi
4:15 am44 °FClear.5 mph98%30.08 "Hg10 mi
3:55 am45 °FClear.5 mph99%30.08 "Hg10 mi
3:35 am45 °FClear.3 mph100%30.08 "Hg10 mi
3:15 am45 °FClear.5 mph100%30.07 "Hg10 mi
2:55 am46 °FClear.5 mph99%30.08 "Hg10 mi
2:35 am46 °FClear.5 mph99%30.08 "Hg10 mi
2:15 am46 °FClear.6 mph100%30.08 "Hg10 mi
1:35 am47 °FClear.3 mph97%30.09 "Hg10 mi
12:55 am48 °FClear.8 mph95%30.10 "Hg10 mi
12:35 am49 °FClear.9 mph94%30.11 "Hg10 mi
12:15 am49 °FClear.8 mph97%30.12 "Hg10 mi
11:55 pm
Sat, Nov 28
50 °FClear.7 mph95%30.12 "Hg10 mi
11:35 pm51 °FClear.7 mph97%30.12 "Hg10 mi
11:15 pm51 °FClear.5 mph99%30.12 "Hg10 mi
10:55 pm52 °FPassing clouds.3 mph100%30.12 "Hg10 mi
10:35 pm53 °FPassing clouds.5 mph97%30.12 "Hg10 mi
10:15 pm54 °FOvercast.No wind94%30.12 "Hg10 mi
9:55 pm54 °FMostly cloudy.No wind93%30.12 "Hg10 mi
9:35 pm54 °FOvercast.No wind94%30.12 "Hg10 mi
9:15 pm54 °FOvercast.No wind94%30.12 "Hg10 mi
8:55 pm54 °FOvercast.No wind95%30.12 "Hg10 mi
8:35 pm54 °FOvercast.3 mph94%30.11 "Hg10 mi
8:15 pm54 °FOvercast.5 mph94%30.11 "Hg10 mi
Weather by CustomWeather, © 2020

See weather overview